createdAt,value
2022-09-02T00:02:29.614Z,10.41
2022-09-02T00:04:57.885Z,10.37
2022-09-02T00:07:26.058Z,10.35
2022-09-02T00:09:55.154Z,10.31
2022-09-02T00:12:23.425Z,10.27
2022-09-02T00:14:51.805Z,10.25
2022-09-02T00:17:20.389Z,10.23
2022-09-02T00:19:50.156Z,10.20
2022-09-02T00:22:21.648Z,10.18
2022-09-02T00:24:50.031Z,10.17
2022-09-02T00:27:18.100Z,10.14
2022-09-02T00:29:46.475Z,10.10
2022-09-02T00:32:14.754Z,10.07
2022-09-02T00:34:42.838Z,10.07
2022-09-02T00:37:11.512Z,10.06
2022-09-02T00:39:40.917Z,10.04
2022-09-02T00:42:08.920Z,10.01
2022-09-02T00:44:37.039Z,9.98
2022-09-02T00:47:04.986Z,9.97
2022-09-02T00:49:38.517Z,9.94
2022-09-02T00:52:27.401Z,9.91
2022-09-02T00:55:03.437Z,9.86
2022-09-02T00:57:42.448Z,9.82
2022-09-02T01:00:20.597Z,9.78
2022-09-02T01:02:53.082Z,9.73
2022-09-02T01:05:23.677Z,9.67
2022-09-02T01:07:54.370Z,9.62
2022-09-02T01:10:26.080Z,9.56
2022-09-02T01:12:59.387Z,9.51
2022-09-02T01:15:27.785Z,9.46
2022-09-02T01:17:56.078Z,9.42
2022-09-02T01:20:27.327Z,9.39
2022-09-02T01:22:58.448Z,9.34
2022-09-02T01:25:31.560Z,9.30
2022-09-02T01:28:06.530Z,9.25
2022-09-02T01:30:36.461Z,9.22
2022-09-02T01:33:04.519Z,9.19
2022-09-02T01:35:32.760Z,9.16
2022-09-02T01:38:03.723Z,9.13
2022-09-02T01:40:41.454Z,9.13
2022-09-02T01:43:19.166Z,9.13
2022-09-02T01:45:49.956Z,9.12
2022-09-02T01:48:21.803Z,9.12
2022-09-02T01:51:02.379Z,9.10
2022-09-02T01:53:31.266Z,9.05
2022-09-02T01:56:00.304Z,9.01
2022-09-02T01:58:28.358Z,8.99
2022-09-02T02:00:57.002Z,8.95
2022-09-02T02:03:25.583Z,8.93
2022-09-02T02:05:53.770Z,8.91
2022-09-02T02:08:23.245Z,8.89
2022-09-02T02:10:51.505Z,8.87
2022-09-02T02:13:19.762Z,8.83
2022-09-02T02:15:47.791Z,8.80
2022-09-02T02:18:15.921Z,8.77
2022-09-02T02:20:45.082Z,8.73
2022-09-02T02:23:14.282Z,8.69
2022-09-02T02:25:42.502Z,8.64
2022-09-02T02:28:10.750Z,8.60
2022-09-02T02:30:38.741Z,8.58
2022-09-02T02:33:06.745Z,8.56
2022-09-02T02:35:35.097Z,8.54
2022-09-02T02:38:04.075Z,8.52
2022-09-02T02:40:33.344Z,8.49
2022-09-02T02:43:01.432Z,8.46
2022-09-02T02:45:29.609Z,8.42
2022-09-02T02:48:00.556Z,8.41
2022-09-02T02:50:28.678Z,8.40
2022-09-02T02:52:57.886Z,8.39
2022-09-02T02:55:26.290Z,8.36
2022-09-02T02:57:54.565Z,8.33
2022-09-02T03:00:28.251Z,8.27
2022-09-02T03:02:59.799Z,8.21
2022-09-02T03:05:28.653Z,8.17
2022-09-02T03:07:56.903Z,8.14
2022-09-02T03:10:26.201Z,8.09
2022-09-02T03:12:54.670Z,8.04
2022-09-02T03:15:23.206Z,8.01
2022-09-02T03:17:51.197Z,7.98
2022-09-02T03:20:19.845Z,7.95
2022-09-02T03:22:51.038Z,7.92
2022-09-02T03:25:21.104Z,7.89
2022-09-02T03:27:50.520Z,7.88
2022-09-02T03:30:22.945Z,7.87
2022-09-02T03:33:00.495Z,7.86
2022-09-02T03:35:33.024Z,7.84
2022-09-02T03:38:01.911Z,7.81
2022-09-02T03:40:30.533Z,7.78
2022-09-02T03:43:00.333Z,7.75
2022-09-02T03:45:31.176Z,7.73
2022-09-02T03:47:59.551Z,7.71
2022-09-02T03:50:42.479Z,7.68
2022-09-02T03:53:18.109Z,7.66
2022-09-02T03:55:49.409Z,7.64
2022-09-02T03:58:19.540Z,7.63
2022-09-02T04:00:53.996Z,7.63
2022-09-02T04:03:22.690Z,7.62
2022-09-02T04:05:52.648Z,7.62
2022-09-02T04:08:21.025Z,7.63
2022-09-02T04:10:49.625Z,7.64
2022-09-02T04:13:18.203Z,7.65
2022-09-02T04:15:48.388Z,7.66
2022-09-02T04:18:17.679Z,7.68
2022-09-02T04:20:46.305Z,7.70
2022-09-02T04:23:14.449Z,7.72
2022-09-02T04:25:44.198Z,7.76
2022-09-02T04:28:13.443Z,7.80
2022-09-02T04:30:42.875Z,7.86
2022-09-02T04:33:11.409Z,7.91
2022-09-02T04:35:45.430Z,7.98
2022-09-02T04:38:14.380Z,8.04
2022-09-02T04:40:46.101Z,8.11
2022-09-02T04:43:14.950Z,8.19
2022-09-02T04:45:45.904Z,8.27
2022-09-02T04:48:14.055Z,8.35
2022-09-02T04:50:43.650Z,8.42
2022-09-02T04:53:12.580Z,8.49
2022-09-02T04:55:42.079Z,8.58
2022-09-02T04:58:11.275Z,8.63
2022-09-02T05:00:40.233Z,8.70
2022-09-02T05:03:08.219Z,8.79
2022-09-02T05:05:37.871Z,8.89
2022-09-02T05:08:06.194Z,9.01
2022-09-02T05:10:35.508Z,9.27
2022-09-02T05:13:04.025Z,10.06
2022-09-02T05:15:32.465Z,11.38
2022-09-02T05:18:00.614Z,12.73
2022-09-02T05:20:32.478Z,13.97
2022-09-02T05:23:00.634Z,15.06
2022-09-02T05:25:28.980Z,16.04
2022-09-02T05:27:57.124Z,16.83
2022-09-02T05:30:25.086Z,17.64
2022-09-02T05:32:53.075Z,18.33
2022-09-02T05:35:22.210Z,18.97
2022-09-02T05:37:50.488Z,19.56
2022-09-02T05:40:22.565Z,20.16
2022-09-02T05:42:51.014Z,20.65
2022-09-02T05:45:19.208Z,21.01
2022-09-02T05:47:47.338Z,21.17
2022-09-02T05:50:17.007Z,21.34
2022-09-02T05:52:45.310Z,21.53
2022-09-02T05:55:13.730Z,21.67
2022-09-02T05:57:43.481Z,21.74
2022-09-02T06:00:18.019Z,22.09
2022-09-02T06:02:46.741Z,22.37
2022-09-02T06:05:14.995Z,22.69
2022-09-02T06:07:43.133Z,23.06
2022-09-02T06:10:11.094Z,23.39
2022-09-02T06:12:42.553Z,23.52
2022-09-02T06:15:12.626Z,23.51
2022-09-02T06:17:41.144Z,23.34
2022-09-02T06:20:10.024Z,23.43
2022-09-02T06:22:40.088Z,23.57
2022-09-02T06:25:08.185Z,23.50
2022-09-02T06:27:38.625Z,22.96
2022-09-02T06:30:07.326Z,22.29
2022-09-02T06:32:35.445Z,21.68
2022-09-02T06:35:03.817Z,20.99
2022-09-02T06:37:31.850Z,20.33
2022-09-02T06:40:00.142Z,19.90
2022-09-02T06:42:28.602Z,19.51
2022-09-02T06:44:56.698Z,19.13
2022-09-02T06:47:24.726Z,18.81
2022-09-02T06:49:53.490Z,18.57
2022-09-02T06:52:21.474Z,18.42
2022-09-02T06:54:52.054Z,18.33
2022-09-02T06:57:20.248Z,18.20
2022-09-02T06:59:50.376Z,18.14
2022-09-02T07:02:18.524Z,18.11
2022-09-02T07:05:05.797Z,18.13
2022-09-02T07:07:36.250Z,18.23
2022-09-02T07:10:11.101Z,18.30
2022-09-02T07:12:40.751Z,18.40
2022-09-02T07:15:12.832Z,18.51
2022-09-02T07:17:40.858Z,18.62
2022-09-02T07:20:09.440Z,18.75
2022-09-02T07:22:39.251Z,18.88
2022-09-02T07:25:08.852Z,19.03
2022-09-02T07:27:37.632Z,19.26
2022-09-02T07:30:06.972Z,19.56
2022-09-02T07:32:35.165Z,19.74
2022-09-02T07:35:06.381Z,19.80
2022-09-02T07:37:37.366Z,19.94
2022-09-02T07:40:08.500Z,20.02
2022-09-02T07:42:36.851Z,20.11
2022-09-02T07:45:07.530Z,20.37
2022-09-02T07:47:35.914Z,20.66
2022-09-02T07:50:22.175Z,20.96
2022-09-02T07:52:50.892Z,21.33
2022-09-02T07:55:19.216Z,21.59
2022-09-02T07:57:48.088Z,21.77
2022-09-02T08:00:19.859Z,21.98
2022-09-02T08:02:48.207Z,22.29
2022-09-02T08:05:16.868Z,22.62
2022-09-02T08:07:45.349Z,22.91
2022-09-02T08:10:14.057Z,23.07
2022-09-02T08:12:44.928Z,23.33
2022-09-02T08:15:14.594Z,23.43
2022-09-02T08:17:44.656Z,23.30
2022-09-02T08:20:14.902Z,23.45
2022-09-02T08:22:45.198Z,23.72
2022-09-02T08:25:18.764Z,23.78
2022-09-02T08:27:47.190Z,23.89
2022-09-02T08:30:15.958Z,24.15
2022-09-02T08:32:44.390Z,24.41
2022-09-02T08:35:12.676Z,24.72
2022-09-02T08:37:40.942Z,25.13
2022-09-02T08:40:16.136Z,25.35
2022-09-02T08:42:51.973Z,25.25
2022-09-02T08:45:40.695Z,25.30
2022-09-02T08:48:41.595Z,25.54
2022-09-02T08:51:27.128Z,26.01
2022-09-02T08:54:25.835Z,26.57
2022-09-02T08:56:54.147Z,27.22
2022-09-02T08:59:27.507Z,27.76
2022-09-02T09:02:17.921Z,28.19
2022-09-02T09:05:14.872Z,28.52
2022-09-02T09:07:55.959Z,28.87
2022-09-02T09:10:40.291Z,29.07
2022-09-02T09:13:25.615Z,29.32
2022-09-02T09:16:38.830Z,29.48
2022-09-02T09:19:31.585Z,29.33
2022-09-02T09:22:03.632Z,29.43
2022-09-02T09:24:35.194Z,29.40
2022-09-02T09:27:09.936Z,29.11
2022-09-02T09:29:38.159Z,29.08
2022-09-02T09:32:24.377Z,29.06
2022-09-02T09:34:52.610Z,29.50
2022-09-02T09:37:59.676Z,30.00
2022-09-02T09:40:33.436Z,30.18
2022-09-02T09:43:15.407Z,30.05
2022-09-02T09:46:21.091Z,29.87
2022-09-02T09:48:51.835Z,30.38
2022-09-02T09:51:20.622Z,30.87
2022-09-02T09:53:48.692Z,31.21
2022-09-02T09:56:17.334Z,31.33
2022-09-02T09:58:47.745Z,31.48
2022-09-02T10:01:31.305Z,31.66
2022-09-02T10:04:12.174Z,31.64
2022-09-02T10:06:49.474Z,31.60
2022-09-02T10:09:20.384Z,31.53
2022-09-02T10:12:05.419Z,31.53
2022-09-02T10:14:38.654Z,31.55
2022-09-02T10:17:33.703Z,31.63
2022-09-02T10:20:23.389Z,31.89
2022-09-02T10:22:59.334Z,32.50
2022-09-02T10:25:47.892Z,33.01
2022-09-02T10:28:37.628Z,33.42
2022-09-02T10:31:24.454Z,33.13
2022-09-02T10:34:03.248Z,33.18
2022-09-02T10:37:09.724Z,32.98
2022-09-02T10:40:02.430Z,33.01
2022-09-02T10:42:43.515Z,32.70
2022-09-02T10:45:18.895Z,32.47
2022-09-02T10:48:10.114Z,32.38
2022-09-02T10:50:41.223Z,32.61
2022-09-02T10:53:09.851Z,32.97
2022-09-02T10:55:54.956Z,32.51
2022-09-02T10:58:29.913Z,31.39
2022-09-02T11:00:58.072Z,31.41
2022-09-02T11:03:33.969Z,30.72
2022-09-02T11:06:15.145Z,30.20
2022-09-02T11:08:52.055Z,30.22
2022-09-02T11:11:51.251Z,30.93
2022-09-02T11:14:35.348Z,31.66
2022-09-02T11:17:12.924Z,32.25
2022-09-02T11:20:01.799Z,32.43
2022-09-02T11:23:14.234Z,32.81
2022-09-02T11:26:13.950Z,33.14
2022-09-02T11:28:54.624Z,32.86
2022-09-02T11:31:32.173Z,32.25
2022-09-02T11:34:37.124Z,31.63
2022-09-02T11:37:08.468Z,31.79
2022-09-02T11:40:02.338Z,32.14
2022-09-02T11:42:47.254Z,32.24
2022-09-02T11:45:36.962Z,32.64
2022-09-02T11:48:33.924Z,32.78
2022-09-02T11:51:39.864Z,32.83
2022-09-02T11:54:12.261Z,32.97
2022-09-02T11:56:47.574Z,33.33
2022-09-02T11:59:50.002Z,33.42
2022-09-02T12:02:59.099Z,34.00
2022-09-02T12:05:31.669Z,34.53
2022-09-02T12:08:36.011Z,34.57
2022-09-02T12:11:07.056Z,34.06
2022-09-02T12:13:42.110Z,33.90
2022-09-02T12:16:13.365Z,33.50
2022-09-02T12:18:58.546Z,32.81
2022-09-02T12:21:28.704Z,32.18
2022-09-02T12:23:57.115Z,32.35
2022-09-02T12:26:51.153Z,32.53
2022-09-02T12:29:19.612Z,32.71
2022-09-02T12:31:53.526Z,33.41
2022-09-02T12:34:21.638Z,34.18
2022-09-02T12:36:53.689Z,34.78
2022-09-02T12:39:24.943Z,34.93
2022-09-02T12:42:11.603Z,35.21
2022-09-02T12:45:16.777Z,35.42
2022-09-02T12:48:28.626Z,34.96
2022-09-02T12:51:06.395Z,33.33
2022-09-02T12:53:50.069Z,32.09
2022-09-02T12:56:24.003Z,31.26
2022-09-02T12:59:02.329Z,31.23
2022-09-02T13:02:04.747Z,31.69
2022-09-02T13:04:32.690Z,32.69
2022-09-02T13:07:23.968Z,33.55
2022-09-02T13:10:15.838Z,34.32
2022-09-02T13:12:57.540Z,34.75
2022-09-02T13:15:44.277Z,35.29
2022-09-02T13:18:31.025Z,35.72
2022-09-02T13:21:05.988Z,36.36
2022-09-02T13:23:42.846Z,36.15
2022-09-02T13:26:50.168Z,35.68
2022-09-02T13:29:33.788Z,35.93
2022-09-02T13:32:17.004Z,36.29
2022-09-02T13:34:47.853Z,36.48
2022-09-02T13:37:45.461Z,36.66
2022-09-02T13:40:25.527Z,36.74
2022-09-02T13:43:06.020Z,35.63
2022-09-02T13:45:35.785Z,34.07
2022-09-02T13:48:19.726Z,32.60
2022-09-02T13:50:51.015Z,31.25
2022-09-02T13:53:54.099Z,30.14
2022-09-02T13:56:31.155Z,29.07
2022-09-02T13:58:59.344Z,28.39
2022-09-02T14:01:32.820Z,27.83
2022-09-02T14:04:10.483Z,27.64
2022-09-02T14:06:43.331Z,28.53
2022-09-02T14:09:24.613Z,30.46
2022-09-02T14:11:54.339Z,32.45
2022-09-02T14:14:25.634Z,34.06
2022-09-02T14:17:21.606Z,34.68
2022-09-02T14:19:51.249Z,33.98
2022-09-02T14:22:29.852Z,32.62
2022-09-02T14:24:58.135Z,31.09
2022-09-02T14:27:26.289Z,29.86
2022-09-02T14:29:58.787Z,28.89
2022-09-02T14:32:29.364Z,28.45
2022-09-02T14:35:20.801Z,29.85
2022-09-02T14:37:59.956Z,32.04
2022-09-02T14:40:39.797Z,33.95
2022-09-02T14:43:23.785Z,35.51
2022-09-02T14:45:52.158Z,36.87
2022-09-02T14:48:24.074Z,38.09
2022-09-02T14:51:04.226Z,39.26
2022-09-02T14:53:34.245Z,40.37
2022-09-02T14:56:02.584Z,40.96
2022-09-02T14:58:30.679Z,41.47
2022-09-02T15:01:01.463Z,42.11
2022-09-02T15:03:31.757Z,42.39
2022-09-02T15:05:59.960Z,42.56
2022-09-02T15:08:28.215Z,42.79
2022-09-02T15:11:01.338Z,42.97
2022-09-02T15:13:34.349Z,43.25
2022-09-02T15:16:03.527Z,43.34
2022-09-02T15:18:31.706Z,43.14
2022-09-02T15:20:59.752Z,42.91
2022-09-02T15:23:31.599Z,43.03
2022-09-02T15:26:03.470Z,42.85
2022-09-02T15:28:31.593Z,42.50
2022-09-02T15:31:03.189Z,42.37
2022-09-02T15:33:33.660Z,42.23
2022-09-02T15:36:12.096Z,42.06
2022-09-02T15:38:41.365Z,41.65
2022-09-02T15:41:20.835Z,40.76
2022-09-02T15:43:49.164Z,39.63
2022-09-02T15:46:27.560Z,39.00
2022-09-02T15:49:02.649Z,38.27
2022-09-02T15:51:32.141Z,37.82
2022-09-02T15:54:03.998Z,37.30
2022-09-02T15:56:34.695Z,36.69
2022-09-02T15:59:11.029Z,36.10
2022-09-02T16:01:42.933Z,35.47
2022-09-02T16:04:13.252Z,34.48
2022-09-02T16:06:45.427Z,33.20
2022-09-02T16:09:15.385Z,32.52
2022-09-02T16:11:53.315Z,32.46
2022-09-02T16:14:24.436Z,32.50
2022-09-02T16:16:55.939Z,32.62
2022-09-02T16:19:27.822Z,32.60
2022-09-02T16:21:58.768Z,32.28
2022-09-02T16:24:27.115Z,32.10
2022-09-02T16:26:55.209Z,32.07
2022-09-02T16:29:28.276Z,31.76
2022-09-02T16:32:14.546Z,30.82
2022-09-02T16:34:47.076Z,29.28
2022-09-02T16:37:15.146Z,28.02
2022-09-02T16:39:43.222Z,26.93
2022-09-02T16:42:11.246Z,25.94
2022-09-02T16:44:41.622Z,25.16
2022-09-02T16:47:12.895Z,24.48
2022-09-02T16:49:42.321Z,23.89
2022-09-02T16:52:10.813Z,23.35
2022-09-02T16:54:41.001Z,22.89
2022-09-02T16:57:09.974Z,22.45
2022-09-02T16:59:38.001Z,22.11
2022-09-02T17:02:06.109Z,21.78
2022-09-02T17:04:34.256Z,21.51
2022-09-02T17:07:02.240Z,21.15
2022-09-02T17:09:31.548Z,20.81
2022-09-02T17:11:59.674Z,20.52
2022-09-02T17:14:27.682Z,20.28
2022-09-02T17:16:55.792Z,20.02
2022-09-02T17:19:26.241Z,19.78
2022-09-02T17:21:58.463Z,19.56
2022-09-02T17:24:31.888Z,19.35
2022-09-02T17:27:01.488Z,19.18
2022-09-02T17:32:20.680Z,18.87
2022-09-02T17:34:51.213Z,18.76
2022-09-02T17:37:22.581Z,18.63
2022-09-02T17:39:50.645Z,18.52
2022-09-02T17:42:21.723Z,18.42
2022-09-02T17:44:50.141Z,18.33
2022-09-02T17:47:22.981Z,18.23
2022-09-02T17:49:51.985Z,18.12
2022-09-02T17:52:23.344Z,18.00
2022-09-02T17:54:53.354Z,17.88
2022-09-02T17:57:42.448Z,17.75
2022-09-02T18:00:15.595Z,17.60
2022-09-02T18:02:55.566Z,17.48
2022-09-02T18:06:02.428Z,17.38
2022-09-02T18:08:49.757Z,17.25
2022-09-02T18:11:20.477Z,17.14
2022-09-02T18:14:16.762Z,17.04
2022-09-02T18:17:13.491Z,16.90
2022-09-02T18:20:06.485Z,16.77
2022-09-02T18:22:53.307Z,16.66
2022-09-02T18:25:46.640Z,16.56
2022-09-02T18:28:40.781Z,16.46
2022-09-02T18:31:14.795Z,16.36
2022-09-02T18:33:55.639Z,16.28
2022-09-02T18:36:29.479Z,16.19
2022-09-02T18:39:51.909Z,16.11
2022-09-02T18:42:48.126Z,15.97
2022-09-02T18:45:21.911Z,15.87
2022-09-02T18:48:05.696Z,15.79
2022-09-02T18:50:55.052Z,15.70
2022-09-02T18:53:28.787Z,15.62
2022-09-02T18:56:02.576Z,15.54
2022-09-02T18:58:40.035Z,15.47
2022-09-02T19:01:23.304Z,15.38
2022-09-02T19:03:51.996Z,15.25
2022-09-02T19:06:23.771Z,15.16
2022-09-02T19:08:59.658Z,15.07
2022-09-02T19:11:28.231Z,15.00
2022-09-02T19:14:09.347Z,14.96
2022-09-02T19:16:39.229Z,14.90
2022-09-02T19:19:08.558Z,14.84
2022-09-02T19:21:41.382Z,14.77
2022-09-02T19:24:25.718Z,14.68
2022-09-02T19:27:00.089Z,14.60
2022-09-02T19:29:28.268Z,14.53
2022-09-02T19:31:56.552Z,14.46
2022-09-02T19:34:32.532Z,14.39
2022-09-02T19:37:02.235Z,14.32
2022-09-02T19:39:41.206Z,14.24
2022-09-02T19:42:09.361Z,14.15
2022-09-02T19:44:39.439Z,14.08
2022-09-02T19:48:02.862Z,14.02
2022-09-02T19:49:58.373Z,13.96
2022-09-02T19:52:27.920Z,13.88
2022-09-02T19:54:57.110Z,13.82
2022-09-02T19:57:25.255Z,13.78
2022-09-02T19:59:53.406Z,13.76
2022-09-02T20:02:21.671Z,13.73
2022-09-02T20:04:49.869Z,13.71
2022-09-02T20:07:18.115Z,13.69
2022-09-02T20:09:46.836Z,13.68
2022-09-02T20:12:16.158Z,13.67
2022-09-02T20:14:46.082Z,13.65
2022-09-02T20:17:18.843Z,13.62
2022-09-02T20:19:47.970Z,13.57
2022-09-02T20:22:18.295Z,13.52
2022-09-02T20:24:46.490Z,13.49
2022-09-02T20:27:35.941Z,13.47
2022-09-02T20:30:09.278Z,13.44
2022-09-02T20:32:58.055Z,13.38
2022-09-02T20:35:28.820Z,13.35
2022-09-02T20:38:48.867Z,13.31
2022-09-02T20:41:40.930Z,13.28
2022-09-02T20:44:28.351Z,13.25
2022-09-02T20:47:08.006Z,13.22
2022-09-02T20:50:14.306Z,13.19
2022-09-02T20:53:05.716Z,13.15
2022-09-02T20:55:45.071Z,13.10
2022-09-02T20:58:44.659Z,13.04
2022-09-02T21:01:28.072Z,12.99
2022-09-02T21:04:24.604Z,12.95
2022-09-02T21:07:01.735Z,12.90
2022-09-02T21:09:56.189Z,12.87
2022-09-02T21:12:56.515Z,12.85
2022-09-02T21:15:48.056Z,12.82
2022-09-02T21:18:47.274Z,12.78
2022-09-02T21:21:36.618Z,12.75
2022-09-02T21:24:32.475Z,12.72
2022-09-02T21:27:20.990Z,12.69
2022-09-02T21:30:02.904Z,12.66
2022-09-02T21:32:39.170Z,12.60
2022-09-02T21:35:49.110Z,12.52
2022-09-02T21:38:24.692Z,12.45
2022-09-02T21:41:07.940Z,12.40
2022-09-02T21:43:59.828Z,12.36
2022-09-02T21:47:01.747Z,12.30
2022-09-02T21:49:49.714Z,12.22
2022-09-02T21:52:29.945Z,12.14
2022-09-02T21:55:23.676Z,12.05
2022-09-02T21:58:10.598Z,11.97
2022-09-02T22:00:48.268Z,11.90
2022-09-02T22:03:24.121Z,11.83
2022-09-02T22:06:01.919Z,11.75
2022-09-02T22:08:51.360Z,11.69
2022-09-02T22:11:36.096Z,11.63
2022-09-02T22:14:15.119Z,11.56
2022-09-02T22:16:58.175Z,11.50
2022-09-02T22:19:39.108Z,11.44
2022-09-02T22:22:22.110Z,11.40
2022-09-02T22:24:52.218Z,11.35
2022-09-02T22:27:41.171Z,11.31
2022-09-02T22:30:14.744Z,11.25
2022-09-02T22:33:08.386Z,11.20
2022-09-02T22:35:39.386Z,11.12
2022-09-02T22:38:11.146Z,11.06
2022-09-02T22:41:20.455Z,11.00
2022-09-02T22:44:01.864Z,10.94
2022-09-02T22:47:03.016Z,10.86
2022-09-02T22:49:55.314Z,10.82
2022-09-02T22:52:55.395Z,10.82
2022-09-02T22:55:47.082Z,10.79
2022-09-02T22:58:24.031Z,10.77
2022-09-02T23:01:20.155Z,10.73
2022-09-02T23:04:06.986Z,10.67
2022-09-02T23:06:35.208Z,10.59
2022-09-02T23:09:09.410Z,10.53
2022-09-02T23:11:49.858Z,10.48
2022-09-02T23:14:19.606Z,10.42
2022-09-02T23:17:07.183Z,10.36
2022-09-02T23:19:56.780Z,10.30
2022-09-02T23:22:57.469Z,10.24
2022-09-02T23:25:31.730Z,10.12
2022-09-02T23:28:28.434Z,10.06
2022-09-02T23:31:26.088Z,10.04
2022-09-02T23:34:07.391Z,10.01
2022-09-02T23:36:57.914Z,10.02
2022-09-02T23:39:33.229Z,10.07
2022-09-02T23:42:01.597Z,10.08
2022-09-02T23:44:30.257Z,10.10
2022-09-02T23:47:17.476Z,10.11
2022-09-02T23:49:54.245Z,10.10
2022-09-02T23:53:06.284Z,10.08
2022-09-02T23:55:56.855Z,10.09
2022-09-02T23:58:45.836Z,10.08
